sensor_id;sensor_type;location;lat;lon;timestamp;P1;durP1;ratioP1;P2;durP2;ratioP2
57730;SDS011;43570;47.476;19.040;2022-10-16T00:01:40;14.32;;;8.68;;
57730;SDS011;43570;47.476;19.040;2022-10-16T00:04:06;10.30;;;8.15;;
57730;SDS011;43570;47.476;19.040;2022-10-16T00:06:31;12.73;;;8.07;;
57730;SDS011;43570;47.476;19.040;2022-10-16T00:08:57;11.73;;;8.30;;
57730;SDS011;43570;47.476;19.040;2022-10-16T00:11:24;16.40;;;8.60;;
57730;SDS011;43570;47.476;19.040;2022-10-16T00:13:51;10.75;;;8.18;;
57730;SDS011;43570;47.476;19.040;2022-10-16T00:16:23;13.35;;;8.55;;
57730;SDS011;43570;47.476;19.040;2022-10-16T00:18:48;13.77;;;8.90;;
57730;SDS011;43570;47.476;19.040;2022-10-16T00:21:15;13.35;;;8.35;;
57730;SDS011;43570;47.476;19.040;2022-10-16T00:23:42;10.88;;;8.30;;
57730;SDS011;43570;47.476;19.040;2022-10-16T00:26:09;12.98;;;8.27;;
57730;SDS011;43570;47.476;19.040;2022-10-16T00:28:37;13.48;;;8.63;;
57730;SDS011;43570;47.476;19.040;2022-10-16T00:31:07;12.35;;;7.78;;
57730;SDS011;43570;47.476;19.040;2022-10-16T00:33:33;14.45;;;8.32;;
57730;SDS011;43570;47.476;19.040;2022-10-16T00:36:00;10.02;;;7.87;;
57730;SDS011;43570;47.476;19.040;2022-10-16T00:38:26;12.85;;;8.65;;
57730;SDS011;43570;47.476;19.040;2022-10-16T00:40:51;12.95;;;7.87;;
57730;SDS011;43570;47.476;19.040;2022-10-16T00:46:00;11.38;;;8.15;;
57730;SDS011;43570;47.476;19.040;2022-10-16T00:48:27;11.82;;;8.68;;
57730;SDS011;43570;47.476;19.040;2022-10-16T00:50:52;9.57;;;7.45;;
57730;SDS011;43570;47.476;19.040;2022-10-16T00:53:18;13.48;;;8.15;;
57730;SDS011;43570;47.476;19.040;2022-10-16T00:55:43;12.18;;;8.60;;
57730;SDS011;43570;47.476;19.040;2022-10-16T00:58:09;11.55;;;8.32;;
57730;SDS011;43570;47.476;19.040;2022-10-16T01:00:35;11.98;;;8.00;;
57730;SDS011;43570;47.476;19.040;2022-10-16T01:03:02;10.05;;;7.82;;
57730;SDS011;43570;47.476;19.040;2022-10-16T01:05:39;14.87;;;7.80;;
57730;SDS011;43570;47.476;19.040;2022-10-16T01:08:13;11.73;;;7.75;;
57730;SDS011;43570;47.476;19.040;2022-10-16T01:10:48;11.20;;;7.65;;
57730;SDS011;43570;47.476;19.040;2022-10-16T01:13:24;12.40;;;7.62;;
57730;SDS011;43570;47.476;19.040;2022-10-16T01:16:00;9.88;;;7.87;;
57730;SDS011;43570;47.476;19.040;2022-10-16T01:21:08;12.18;;;7.70;;
57730;SDS011;43570;47.476;19.040;2022-10-16T01:23:44;10.88;;;8.00;;
57730;SDS011;43570;47.476;19.040;2022-10-16T01:31:33;12.60;;;7.62;;
57730;SDS011;43570;47.476;19.040;2022-10-16T01:34:02;13.25;;;8.32;;
57730;SDS011;43570;47.476;19.040;2022-10-16T01:36:32;11.35;;;8.57;;
57730;SDS011;43570;47.476;19.040;2022-10-16T01:39:02;10.50;;;7.95;;
57730;SDS011;43570;47.476;19.040;2022-10-16T01:41:32;13.68;;;8.23;;
57730;SDS011;43570;47.476;19.040;2022-10-16T01:44:09;11.35;;;7.95;;
57730;SDS011;43570;47.476;19.040;2022-10-16T01:46:38;12.52;;;7.35;;
57730;SDS011;43570;47.476;19.040;2022-10-16T01:49:05;13.13;;;8.13;;
57730;SDS011;43570;47.476;19.040;2022-10-16T01:51:31;12.07;;;7.87;;
57730;SDS011;43570;47.476;19.040;2022-10-16T01:53:58;10.88;;;7.30;;
57730;SDS011;43570;47.476;19.040;2022-10-16T01:56:24;13.65;;;9.02;;
57730;SDS011;43570;47.476;19.040;2022-10-16T01:59:01;10.23;;;8.10;;
57730;SDS011;43570;47.476;19.040;2022-10-16T02:01:29;12.05;;;8.23;;
57730;SDS011;43570;47.476;19.040;2022-10-16T02:03:57;13.73;;;7.60;;
57730;SDS011;43570;47.476;19.040;2022-10-16T02:06:25;11.93;;;8.07;;
57730;SDS011;43570;47.476;19.040;2022-10-16T02:08:50;12.70;;;8.10;;
57730;SDS011;43570;47.476;19.040;2022-10-16T02:11:16;13.80;;;8.32;;
57730;SDS011;43570;47.476;19.040;2022-10-16T02:14:01;10.95;;;8.50;;
57730;SDS011;43570;47.476;19.040;2022-10-16T02:16:36;10.20;;;7.95;;
57730;SDS011;43570;47.476;19.040;2022-10-16T02:19:07;10.40;;;7.78;;
57730;SDS011;43570;47.476;19.040;2022-10-16T02:21:36;9.90;;;8.05;;
57730;SDS011;43570;47.476;19.040;2022-10-16T02:24:21;11.90;;;8.85;;
57730;SDS011;43570;47.476;19.040;2022-10-16T02:27:08;12.88;;;8.55;;
57730;SDS011;43570;47.476;19.040;2022-10-16T02:29:44;11.75;;;9.00;;
57730;SDS011;43570;47.476;19.040;2022-10-16T02:32:15;15.05;;;10.65;;
57730;SDS011;43570;47.476;19.040;2022-10-16T02:34:43;11.73;;;8.90;;
57730;SDS011;43570;47.476;19.040;2022-10-16T02:37:09;12.75;;;8.88;;
57730;SDS011;43570;47.476;19.040;2022-10-16T02:39:35;11.65;;;8.73;;
57730;SDS011;43570;47.476;19.040;2022-10-16T02:42:01;11.02;;;8.25;;
57730;SDS011;43570;47.476;19.040;2022-10-16T02:44:27;12.95;;;8.75;;
57730;SDS011;43570;47.476;19.040;2022-10-16T02:46:53;14.52;;;8.65;;
57730;SDS011;43570;47.476;19.040;2022-10-16T02:49:18;11.23;;;8.70;;
57730;SDS011;43570;47.476;19.040;2022-10-16T02:51:43;12.35;;;8.60;;
57730;SDS011;43570;47.476;19.040;2022-10-16T02:54:09;12.45;;;8.10;;
57730;SDS011;43570;47.476;19.040;2022-10-16T02:56:34;12.30;;;8.88;;
57730;SDS011;43570;47.476;19.040;2022-10-16T02:59:00;11.30;;;8.85;;
57730;SDS011;43570;47.476;19.040;2022-10-16T03:01:25;11.73;;;9.73;;
57730;SDS011;43570;47.476;19.040;2022-10-16T03:03:50;12.32;;;8.73;;
57730;SDS011;43570;47.476;19.040;2022-10-16T03:06:16;11.55;;;8.40;;
57730;SDS011;43570;47.476;19.040;2022-10-16T03:08:41;13.02;;;8.65;;
57730;SDS011;43570;47.476;19.040;2022-10-16T03:11:07;11.55;;;9.23;;
57730;SDS011;43570;47.476;19.040;2022-10-16T03:13:33;11.80;;;9.23;;
57730;SDS011;43570;47.476;19.040;2022-10-16T03:15:58;14.50;;;8.88;;
57730;SDS011;43570;47.476;19.040;2022-10-16T03:18:23;22.95;;;19.83;;
57730;SDS011;43570;47.476;19.040;2022-10-16T03:20:49;16.75;;;11.38;;
57730;SDS011;43570;47.476;19.040;2022-10-16T03:23:14;11.48;;;9.07;;
57730;SDS011;43570;47.476;19.040;2022-10-16T03:25:40;14.68;;;10.25;;
57730;SDS011;43570;47.476;19.040;2022-10-16T03:28:05;15.68;;;9.57;;
57730;SDS011;43570;47.476;19.040;2022-10-16T03:30:30;13.18;;;9.50;;
57730;SDS011;43570;47.476;19.040;2022-10-16T03:32:56;12.45;;;8.93;;
57730;SDS011;43570;47.476;19.040;2022-10-16T03:35:22;13.65;;;9.50;;
57730;SDS011;43570;47.476;19.040;2022-10-16T03:37:47;13.27;;;10.63;;
57730;SDS011;43570;47.476;19.040;2022-10-16T03:40:13;12.85;;;9.43;;
57730;SDS011;43570;47.476;19.040;2022-10-16T03:42:38;13.35;;;9.88;;
57730;SDS011;43570;47.476;19.040;2022-10-16T03:45:04;11.65;;;9.52;;
57730;SDS011;43570;47.476;19.040;2022-10-16T03:47:30;12.63;;;9.23;;
57730;SDS011;43570;47.476;19.040;2022-10-16T03:49:57;11.68;;;8.70;;
57730;SDS011;43570;47.476;19.040;2022-10-16T03:52:23;10.95;;;8.52;;
57730;SDS011;43570;47.476;19.040;2022-10-16T03:54:49;12.93;;;9.15;;
57730;SDS011;43570;47.476;19.040;2022-10-16T03:57:14;12.25;;;9.73;;
57730;SDS011;43570;47.476;19.040;2022-10-16T03:59:39;11.80;;;9.02;;
57730;SDS011;43570;47.476;19.040;2022-10-16T04:02:05;12.13;;;9.50;;
57730;SDS011;43570;47.476;19.040;2022-10-16T04:04:30;11.80;;;9.77;;
57730;SDS011;43570;47.476;19.040;2022-10-16T04:06:55;12.07;;;9.68;;
57730;SDS011;43570;47.476;19.040;2022-10-16T04:09:21;13.07;;;9.27;;
57730;SDS011;43570;47.476;19.040;2022-10-16T04:11:47;11.65;;;8.98;;
57730;SDS011;43570;47.476;19.040;2022-10-16T04:14:12;13.15;;;9.65;;
57730;SDS011;43570;47.476;19.040;2022-10-16T04:16:38;13.95;;;9.57;;
57730;SDS011;43570;47.476;19.040;2022-10-16T04:19:03;11.73;;;9.60;;
57730;SDS011;43570;47.476;19.040;2022-10-16T04:21:29;13.77;;;9.60;;
57730;SDS011;43570;47.476;19.040;2022-10-16T04:23:54;11.95;;;9.32;;
57730;SDS011;43570;47.476;19.040;2022-10-16T04:26:19;12.85;;;9.02;;
57730;SDS011;43570;47.476;19.040;2022-10-16T04:28:45;11.25;;;9.00;;
57730;SDS011;43570;47.476;19.040;2022-10-16T04:31:11;11.50;;;9.07;;
57730;SDS011;43570;47.476;19.040;2022-10-16T04:33:36;11.73;;;9.80;;
57730;SDS011;43570;47.476;19.040;2022-10-16T04:36:02;15.93;;;13.02;;
57730;SDS011;43570;47.476;19.040;2022-10-16T04:38:28;11.73;;;9.07;;
57730;SDS011;43570;47.476;19.040;2022-10-16T04:40:53;13.60;;;8.90;;
57730;SDS011;43570;47.476;19.040;2022-10-16T04:43:20;12.05;;;9.73;;
57730;SDS011;43570;47.476;19.040;2022-10-16T04:45:45;11.38;;;9.40;;
57730;SDS011;43570;47.476;19.040;2022-10-16T04:48:12;12.05;;;9.38;;
57730;SDS011;43570;47.476;19.040;2022-10-16T04:50:39;11.80;;;9.27;;
57730;SDS011;43570;47.476;19.040;2022-10-16T04:53:06;13.75;;;9.20;;
57730;SDS011;43570;47.476;19.040;2022-10-16T04:55:32;12.18;;;9.23;;
57730;SDS011;43570;47.476;19.040;2022-10-16T04:57:57;12.82;;;9.57;;
57730;SDS011;43570;47.476;19.040;2022-10-16T05:00:23;12.98;;;9.90;;
57730;SDS011;43570;47.476;19.040;2022-10-16T05:02:53;13.43;;;9.50;;
57730;SDS011;43570;47.476;19.040;2022-10-16T05:07:48;11.05;;;9.88;;
57730;SDS011;43570;47.476;19.040;2022-10-16T05:10:14;12.98;;;9.85;;
57730;SDS011;43570;47.476;19.040;2022-10-16T05:12:40;16.92;;;9.43;;
57730;SDS011;43570;47.476;19.040;2022-10-16T05:15:05;13.15;;;9.38;;
57730;SDS011;43570;47.476;19.040;2022-10-16T05:17:31;12.05;;;9.77;;
57730;SDS011;43570;47.476;19.040;2022-10-16T05:19:57;15.45;;;10.40;;
57730;SDS011;43570;47.476;19.040;2022-10-16T05:22:22;11.40;;;9.55;;
57730;SDS011;43570;47.476;19.040;2022-10-16T05:24:47;12.90;;;10.07;;
57730;SDS011;43570;47.476;19.040;2022-10-16T05:27:13;14.45;;;10.68;;
57730;SDS011;43570;47.476;19.040;2022-10-16T05:29:44;12.55;;;9.98;;
57730;SDS011;43570;47.476;19.040;2022-10-16T05:32:16;13.38;;;9.35;;
57730;SDS011;43570;47.476;19.040;2022-10-16T05:34:42;13.27;;;9.73;;
57730;SDS011;43570;47.476;19.040;2022-10-16T05:37:08;13.27;;;9.35;;
57730;SDS011;43570;47.476;19.040;2022-10-16T05:39:33;13.55;;;9.30;;
57730;SDS011;43570;47.476;19.040;2022-10-16T05:41:58;15.63;;;10.07;;
57730;SDS011;43570;47.476;19.040;2022-10-16T05:44:25;13.73;;;9.68;;
57730;SDS011;43570;47.476;19.040;2022-10-16T05:46:50;12.52;;;9.65;;
57730;SDS011;43570;47.476;19.040;2022-10-16T05:49:16;12.00;;;9.57;;
57730;SDS011;43570;47.476;19.040;2022-10-16T05:51:41;13.65;;;8.98;;
57730;SDS011;43570;47.476;19.040;2022-10-16T05:54:08;11.20;;;9.27;;
57730;SDS011;43570;47.476;19.040;2022-10-16T05:56:34;11.52;;;9.20;;
57730;SDS011;43570;47.476;19.040;2022-10-16T05:59:00;12.65;;;9.20;;
57730;SDS011;43570;47.476;19.040;2022-10-16T06:01:25;12.77;;;8.70;;
57730;SDS011;43570;47.476;19.040;2022-10-16T06:03:51;13.88;;;9.50;;
57730;SDS011;43570;47.476;19.040;2022-10-16T17:37:12;15.55;;;9.48;;
57730;SDS011;43570;47.476;19.040;2022-10-16T17:39:37;12.32;;;9.55;;
57730;SDS011;43570;47.476;19.040;2022-10-16T17:42:02;16.25;;;10.73;;
57730;SDS011;43570;47.476;19.040;2022-10-16T17:44:28;14.57;;;10.02;;
57730;SDS011;43570;47.476;19.040;2022-10-16T17:46:53;18.05;;;10.65;;
57730;SDS011;43570;47.476;19.040;2022-10-16T17:49:19;19.17;;;10.25;;
57730;SDS011;43570;47.476;19.040;2022-10-16T17:51:45;12.20;;;8.65;;
57730;SDS011;43570;47.476;19.040;2022-10-16T17:54:14;13.20;;;9.40;;
57730;SDS011;43570;47.476;19.040;2022-10-16T17:56:39;13.95;;;9.63;;
57730;SDS011;43570;47.476;19.040;2022-10-16T17:59:05;18.25;;;10.45;;
57730;SDS011;43570;47.476;19.040;2022-10-16T18:01:34;16.37;;;10.55;;
57730;SDS011;43570;47.476;19.040;2022-10-16T18:04:03;13.35;;;9.63;;
57730;SDS011;43570;47.476;19.040;2022-10-16T18:06:31;19.17;;;10.38;;
57730;SDS011;43570;47.476;19.040;2022-10-16T18:08:57;14.65;;;9.38;;
57730;SDS011;43570;47.476;19.040;2022-10-16T18:11:24;18.95;;;11.63;;
57730;SDS011;43570;47.476;19.040;2022-10-16T18:13:51;14.93;;;10.00;;
57730;SDS011;43570;47.476;19.040;2022-10-16T18:16:17;18.25;;;11.02;;
57730;SDS011;43570;47.476;19.040;2022-10-16T18:18:42;17.90;;;10.45;;
57730;SDS011;43570;47.476;19.040;2022-10-16T18:21:09;13.93;;;10.07;;
57730;SDS011;43570;47.476;19.040;2022-10-16T18:23:36;15.57;;;10.15;;
57730;SDS011;43570;47.476;19.040;2022-10-16T18:26:02;16.80;;;10.07;;
57730;SDS011;43570;47.476;19.040;2022-10-16T18:28:28;14.48;;;10.10;;
57730;SDS011;43570;47.476;19.040;2022-10-16T18:30:57;15.10;;;10.82;;
57730;SDS011;43570;47.476;19.040;2022-10-16T18:33:24;14.13;;;9.98;;
57730;SDS011;43570;47.476;19.040;2022-10-16T18:35:50;16.30;;;10.68;;
57730;SDS011;43570;47.476;19.040;2022-10-16T18:38:16;15.05;;;10.20;;
57730;SDS011;43570;47.476;19.040;2022-10-16T18:40:42;15.32;;;10.75;;
57730;SDS011;43570;47.476;19.040;2022-10-16T18:43:07;15.90;;;12.02;;
57730;SDS011;43570;47.476;19.040;2022-10-16T18:45:32;15.55;;;10.30;;
57730;SDS011;43570;47.476;19.040;2022-10-16T18:47:58;14.43;;;10.20;;
57730;SDS011;43570;47.476;19.040;2022-10-16T18:50:23;19.10;;;10.85;;
57730;SDS011;43570;47.476;19.040;2022-10-16T18:52:49;17.58;;;11.82;;
57730;SDS011;43570;47.476;19.040;2022-10-16T18:55:14;17.08;;;10.77;;
57730;SDS011;43570;47.476;19.040;2022-10-16T18:57:40;14.50;;;10.85;;
57730;SDS011;43570;47.476;19.040;2022-10-16T19:00:05;16.45;;;10.50;;
57730;SDS011;43570;47.476;19.040;2022-10-16T19:02:31;13.90;;;9.88;;
57730;SDS011;43570;47.476;19.040;2022-10-16T19:04:57;15.18;;;9.95;;
57730;SDS011;43570;47.476;19.040;2022-10-16T19:07:23;13.38;;;10.13;;
57730;SDS011;43570;47.476;19.040;2022-10-16T19:09:48;15.40;;;10.85;;
57730;SDS011;43570;47.476;19.040;2022-10-16T19:12:14;12.75;;;10.35;;
57730;SDS011;43570;47.476;19.040;2022-10-16T19:14:39;15.90;;;10.20;;
57730;SDS011;43570;47.476;19.040;2022-10-16T19:17:05;13.10;;;10.65;;
57730;SDS011;43570;47.476;19.040;2022-10-16T19:19:30;15.57;;;10.23;;
57730;SDS011;43570;47.476;19.040;2022-10-16T19:21:55;18.92;;;11.00;;
57730;SDS011;43570;47.476;19.040;2022-10-16T19:24:35;13.27;;;10.65;;
57730;SDS011;43570;47.476;19.040;2022-10-16T19:27:02;17.05;;;11.35;;
57730;SDS011;43570;47.476;19.040;2022-10-16T19:29:27;14.38;;;10.77;;
57730;SDS011;43570;47.476;19.040;2022-10-16T19:31:52;16.62;;;11.15;;
57730;SDS011;43570;47.476;19.040;2022-10-16T19:34:18;19.65;;;11.80;;
57730;SDS011;43570;47.476;19.040;2022-10-16T19:36:43;14.48;;;11.15;;
57730;SDS011;43570;47.476;19.040;2022-10-16T19:39:12;17.10;;;12.10;;
57730;SDS011;43570;47.476;19.040;2022-10-16T19:41:39;18.15;;;11.32;;
57730;SDS011;43570;47.476;19.040;2022-10-16T19:44:06;13.27;;;10.43;;
57730;SDS011;43570;47.476;19.040;2022-10-16T19:46:32;18.42;;;12.15;;
57730;SDS011;43570;47.476;19.040;2022-10-16T19:48:59;18.90;;;13.07;;
57730;SDS011;43570;47.476;19.040;2022-10-16T19:51:26;18.42;;;12.40;;
57730;SDS011;43570;47.476;19.040;2022-10-16T19:54:01;13.15;;;11.30;;
57730;SDS011;43570;47.476;19.040;2022-10-16T19:56:29;15.98;;;12.25;;
57730;SDS011;43570;47.476;19.040;2022-10-16T19:58:56;15.15;;;12.18;;
57730;SDS011;43570;47.476;19.040;2022-10-16T20:01:23;16.95;;;12.77;;
57730;SDS011;43570;47.476;19.040;2022-10-16T20:03:49;21.27;;;13.43;;
57730;SDS011;43570;47.476;19.040;2022-10-16T20:06:15;20.33;;;12.82;;
57730;SDS011;43570;47.476;19.040;2022-10-16T20:08:42;16.67;;;12.30;;
57730;SDS011;43570;47.476;19.040;2022-10-16T20:11:09;16.23;;;12.93;;
57730;SDS011;43570;47.476;19.040;2022-10-16T20:13:36;18.02;;;12.82;;
57730;SDS011;43570;47.476;19.040;2022-10-16T20:16:03;20.75;;;14.10;;
57730;SDS011;43570;47.476;19.040;2022-10-16T20:18:29;16.00;;;13.02;;
57730;SDS011;43570;47.476;19.040;2022-10-16T20:20:55;21.42;;;13.18;;
57730;SDS011;43570;47.476;19.040;2022-10-16T20:23:20;15.02;;;12.25;;
57730;SDS011;43570;47.476;19.040;2022-10-16T20:25:47;17.62;;;12.50;;
57730;SDS011;43570;47.476;19.040;2022-10-16T20:28:15;16.87;;;13.57;;
57730;SDS011;43570;47.476;19.040;2022-10-16T20:30:45;16.15;;;13.18;;
57730;SDS011;43570;47.476;19.040;2022-10-16T20:33:12;17.37;;;13.07;;
57730;SDS011;43570;47.476;19.040;2022-10-16T20:35:38;15.07;;;12.80;;
57730;SDS011;43570;47.476;19.040;2022-10-16T20:38:05;17.73;;;13.13;;
57730;SDS011;43570;47.476;19.040;2022-10-16T20:40:33;16.85;;;13.05;;
57730;SDS011;43570;47.476;19.040;2022-10-16T20:42:59;16.33;;;12.23;;
57730;SDS011;43570;47.476;19.040;2022-10-16T20:45:24;19.40;;;13.05;;
57730;SDS011;43570;47.476;19.040;2022-10-16T20:47:50;16.60;;;13.27;;
57730;SDS011;43570;47.476;19.040;2022-10-16T20:50:15;15.20;;;12.37;;
57730;SDS011;43570;47.476;19.040;2022-10-16T20:52:41;16.70;;;12.52;;
57730;SDS011;43570;47.476;19.040;2022-10-16T20:55:07;18.05;;;12.57;;
57730;SDS011;43570;47.476;19.040;2022-10-16T20:57:33;14.50;;;12.20;;
57730;SDS011;43570;47.476;19.040;2022-10-16T20:59:58;16.12;;;13.40;;
57730;SDS011;43570;47.476;19.040;2022-10-16T21:02:23;15.75;;;12.45;;
57730;SDS011;43570;47.476;19.040;2022-10-16T21:04:49;16.48;;;12.25;;
57730;SDS011;43570;47.476;19.040;2022-10-16T21:07:15;18.05;;;13.70;;
57730;SDS011;43570;47.476;19.040;2022-10-16T21:09:40;23.02;;;13.02;;
57730;SDS011;43570;47.476;19.040;2022-10-16T21:12:06;16.42;;;12.43;;
57730;SDS011;43570;47.476;19.040;2022-10-16T21:14:32;16.37;;;13.38;;
57730;SDS011;43570;47.476;19.040;2022-10-16T21:16:57;16.98;;;12.23;;
57730;SDS011;43570;47.476;19.040;2022-10-16T21:19:23;15.13;;;11.82;;
57730;SDS011;43570;47.476;19.040;2022-10-16T21:21:49;14.02;;;12.10;;
57730;SDS011;43570;47.476;19.040;2022-10-16T21:24:15;15.00;;;12.48;;
57730;SDS011;43570;47.476;19.040;2022-10-16T21:26:42;14.15;;;11.68;;
57730;SDS011;43570;47.476;19.040;2022-10-16T21:29:07;16.25;;;12.23;;
57730;SDS011;43570;47.476;19.040;2022-10-16T21:31:33;15.57;;;11.43;;
57730;SDS011;43570;47.476;19.040;2022-10-16T21:33:59;16.60;;;12.40;;
57730;SDS011;43570;47.476;19.040;2022-10-16T21:36:26;14.07;;;11.15;;
57730;SDS011;43570;47.476;19.040;2022-10-16T21:38:58;14.55;;;11.85;;
57730;SDS011;43570;47.476;19.040;2022-10-16T21:41:31;16.75;;;12.43;;
57730;SDS011;43570;47.476;19.040;2022-10-16T21:43:57;17.37;;;12.02;;
57730;SDS011;43570;47.476;19.040;2022-10-16T21:46:23;15.32;;;11.18;;
57730;SDS011;43570;47.476;19.040;2022-10-16T21:48:53;21.17;;;12.30;;
57730;SDS011;43570;47.476;19.040;2022-10-16T21:51:29;15.95;;;10.82;;
57730;SDS011;43570;47.476;19.040;2022-10-16T21:53:58;16.23;;;10.82;;
57730;SDS011;43570;47.476;19.040;2022-10-16T21:56:27;18.40;;;12.00;;
57730;SDS011;43570;47.476;19.040;2022-10-16T21:58:53;18.27;;;11.98;;
57730;SDS011;43570;47.476;19.040;2022-10-16T22:01:19;14.70;;;11.52;;
57730;SDS011;43570;47.476;19.040;2022-10-16T22:03:46;14.40;;;11.38;;
57730;SDS011;43570;47.476;19.040;2022-10-16T22:06:12;13.43;;;11.43;;
57730;SDS011;43570;47.476;19.040;2022-10-16T22:08:39;13.23;;;11.75;;
57730;SDS011;43570;47.476;19.040;2022-10-16T22:11:06;14.75;;;11.52;;
57730;SDS011;43570;47.476;19.040;2022-10-16T22:13:36;14.85;;;11.82;;
57730;SDS011;43570;47.476;19.040;2022-10-16T22:16:01;13.88;;;11.35;;
57730;SDS011;43570;47.476;19.040;2022-10-16T22:18:27;13.75;;;11.70;;
57730;SDS011;43570;47.476;19.040;2022-10-16T22:20:53;18.48;;;11.40;;
57730;SDS011;43570;47.476;19.040;2022-10-16T22:23:19;15.45;;;11.70;;
57730;SDS011;43570;47.476;19.040;2022-10-16T22:25:44;13.45;;;10.90;;
57730;SDS011;43570;47.476;19.040;2022-10-16T22:28:10;13.77;;;11.70;;
57730;SDS011;43570;47.476;19.040;2022-10-16T22:30:36;14.98;;;10.98;;
57730;SDS011;43570;47.476;19.040;2022-10-16T22:33:02;13.57;;;10.98;;
57730;SDS011;43570;47.476;19.040;2022-10-16T22:35:28;13.80;;;12.07;;
57730;SDS011;43570;47.476;19.040;2022-10-16T22:37:53;15.35;;;11.80;;
57730;SDS011;43570;47.476;19.040;2022-10-16T22:40:19;15.50;;;11.60;;
57730;SDS011;43570;47.476;19.040;2022-10-16T22:42:44;13.93;;;11.50;;
57730;SDS011;43570;47.476;19.040;2022-10-16T22:45:09;13.07;;;11.02;;
57730;SDS011;43570;47.476;19.040;2022-10-16T22:47:35;14.30;;;11.38;;
57730;SDS011;43570;47.476;19.040;2022-10-16T22:50:00;13.68;;;11.55;;
57730;SDS011;43570;47.476;19.040;2022-10-16T22:52:25;13.95;;;11.77;;
57730;SDS011;43570;47.476;19.040;2022-10-16T22:54:51;15.68;;;12.23;;
57730;SDS011;43570;47.476;19.040;2022-10-16T22:57:16;14.48;;;12.23;;
57730;SDS011;43570;47.476;19.040;2022-10-16T22:59:43;13.48;;;11.90;;
57730;SDS011;43570;47.476;19.040;2022-10-16T23:02:08;14.45;;;10.77;;
57730;SDS011;43570;47.476;19.040;2022-10-16T23:04:33;14.63;;;11.15;;
57730;SDS011;43570;47.476;19.040;2022-10-16T23:06:59;12.65;;;11.20;;
57730;SDS011;43570;47.476;19.040;2022-10-16T23:09:25;15.98;;;11.32;;
57730;SDS011;43570;47.476;19.040;2022-10-16T23:11:50;15.30;;;12.23;;
57730;SDS011;43570;47.476;19.040;2022-10-16T23:14:19;13.25;;;11.40;;
57730;SDS011;43570;47.476;19.040;2022-10-16T23:16:45;12.63;;;11.02;;
57730;SDS011;43570;47.476;19.040;2022-10-16T23:19:11;12.85;;;11.43;;
57730;SDS011;43570;47.476;19.040;2022-10-16T23:21:36;13.45;;;11.27;;
57730;SDS011;43570;47.476;19.040;2022-10-16T23:24:01;13.85;;;11.18;;
57730;SDS011;43570;47.476;19.040;2022-10-16T23:26:27;13.32;;;10.95;;
57730;SDS011;43570;47.476;19.040;2022-10-16T23:28:56;13.15;;;11.35;;
57730;SDS011;43570;47.476;19.040;2022-10-16T23:31:22;14.43;;;11.77;;
57730;SDS011;43570;47.476;19.040;2022-10-16T23:33:47;13.68;;;11.27;;
57730;SDS011;43570;47.476;19.040;2022-10-16T23:36:17;13.23;;;11.52;;
57730;SDS011;43570;47.476;19.040;2022-10-16T23:38:44;14.35;;;11.77;;
57730;SDS011;43570;47.476;19.040;2022-10-16T23:41:10;13.55;;;11.48;;
57730;SDS011;43570;47.476;19.040;2022-10-16T23:43:36;13.85;;;11.07;;
57730;SDS011;43570;47.476;19.040;2022-10-16T23:46:02;13.48;;;10.70;;
57730;SDS011;43570;47.476;19.040;2022-10-16T23:48:28;12.32;;;10.43;;
57730;SDS011;43570;47.476;19.040;2022-10-16T23:50:53;13.60;;;10.65;;
57730;SDS011;43570;47.476;19.040;2022-10-16T23:53:19;15.38;;;10.93;;
57730;SDS011;43570;47.476;19.040;2022-10-16T23:55:44;14.00;;;11.00;;
57730;SDS011;43570;47.476;19.040;2022-10-16T23:58:10;13.75;;;11.05;;
